sensor_id;sensor_type;location;lat;lon;timestamp;P1;durP1;ratioP1;P2;durP2;ratioP2
66567;SDS011;53422;49.296;6.900;2023-05-10T00:02:24;1.50;;;0.90;;
66567;SDS011;53422;49.296;6.900;2023-05-10T00:04:49;3.08;;;1.10;;
66567;SDS011;53422;49.296;6.900;2023-05-10T00:07:15;1.52;;;0.98;;
66567;SDS011;53422;49.296;6.900;2023-05-10T00:09:42;1.70;;;1.08;;
66567;SDS011;53422;49.296;6.900;2023-05-10T00:12:08;1.77;;;1.00;;
66567;SDS011;53422;49.296;6.900;2023-05-10T00:14:34;2.55;;;1.00;;
66567;SDS011;53422;49.296;6.900;2023-05-10T00:17:00;2.38;;;1.23;;
66567;SDS011;53422;49.296;6.900;2023-05-10T00:19:25;4.13;;;1.20;;
66567;SDS011;53422;49.296;6.900;2023-05-10T00:21:51;2.95;;;1.30;;
66567;SDS011;53422;49.296;6.900;2023-05-10T00:24:17;2.30;;;1.40;;
66567;SDS011;53422;49.296;6.900;2023-05-10T00:26:42;2.58;;;1.50;;
66567;SDS011;53422;49.296;6.900;2023-05-10T00:29:08;2.95;;;2.05;;
66567;SDS011;53422;49.296;6.900;2023-05-10T00:31:33;2.97;;;1.63;;
66567;SDS011;53422;49.296;6.900;2023-05-10T00:33:59;4.18;;;1.90;;
66567;SDS011;53422;49.296;6.900;2023-05-10T00:36:25;4.53;;;1.85;;
66567;SDS011;53422;49.296;6.900;2023-05-10T00:38:51;3.97;;;1.77;;
66567;SDS011;53422;49.296;6.900;2023-05-10T00:41:16;3.20;;;1.60;;
66567;SDS011;53422;49.296;6.900;2023-05-10T00:43:42;2.92;;;1.50;;
66567;SDS011;53422;49.296;6.900;2023-05-10T00:46:08;4.63;;;1.42;;
66567;SDS011;53422;49.296;6.900;2023-05-10T00:48:33;3.47;;;1.75;;
66567;SDS011;53422;49.296;6.900;2023-05-10T00:51:00;3.47;;;1.60;;
66567;SDS011;53422;49.296;6.900;2023-05-10T00:53:26;4.20;;;2.00;;
66567;SDS011;53422;49.296;6.900;2023-05-10T00:55:52;3.53;;;1.92;;
66567;SDS011;53422;49.296;6.900;2023-05-10T00:58:18;2.58;;;1.30;;
66567;SDS011;53422;49.296;6.900;2023-05-10T01:00:43;2.75;;;1.77;;
66567;SDS011;53422;49.296;6.900;2023-05-10T01:03:13;4.03;;;1.52;;
66567;SDS011;53422;49.296;6.900;2023-05-10T01:05:39;4.68;;;1.90;;
66567;SDS011;53422;49.296;6.900;2023-05-10T01:08:04;3.33;;;1.75;;
66567;SDS011;53422;49.296;6.900;2023-05-10T01:10:31;3.33;;;1.52;;
66567;SDS011;53422;49.296;6.900;2023-05-10T01:12:57;4.00;;;2.05;;
66567;SDS011;53422;49.296;6.900;2023-05-10T01:15:24;2.90;;;1.70;;
66567;SDS011;53422;49.296;6.900;2023-05-10T01:17:50;3.00;;;1.80;;
66567;SDS011;53422;49.296;6.900;2023-05-10T01:20:16;3.22;;;1.75;;
66567;SDS011;53422;49.296;6.900;2023-05-10T01:33:55;6.38;;;1.85;;
66567;SDS011;53422;49.296;6.900;2023-05-10T01:36:35;4.32;;;2.10;;
66567;SDS011;53422;49.296;6.900;2023-05-10T01:39:15;4.55;;;2.20;;
66567;SDS011;53422;49.296;6.900;2023-05-10T01:47:14;3.92;;;1.83;;
66567;SDS011;53422;49.296;6.900;2023-05-10T01:49:45;3.72;;;2.15;;
66567;SDS011;53422;49.296;6.900;2023-05-10T01:52:16;3.95;;;2.30;;
66567;SDS011;53422;49.296;6.900;2023-05-10T01:54:49;3.90;;;2.42;;
66567;SDS011;53422;49.296;6.900;2023-05-10T01:57:27;3.17;;;1.92;;
66567;SDS011;53422;49.296;6.900;2023-05-10T02:02:28;4.07;;;1.98;;
66567;SDS011;53422;49.296;6.900;2023-05-10T02:04:57;4.13;;;2.35;;
66567;SDS011;53422;49.296;6.900;2023-05-10T02:07:23;3.70;;;2.05;;
66567;SDS011;53422;49.296;6.900;2023-05-10T02:09:51;4.13;;;2.13;;
66567;SDS011;53422;49.296;6.900;2023-05-10T02:12:17;3.63;;;2.17;;
66567;SDS011;53422;49.296;6.900;2023-05-10T02:14:45;5.03;;;2.83;;
66567;SDS011;53422;49.296;6.900;2023-05-10T02:17:12;3.45;;;2.40;;
66567;SDS011;53422;49.296;6.900;2023-05-10T02:19:40;3.40;;;2.22;;
66567;SDS011;53422;49.296;6.900;2023-05-10T02:24:33;4.85;;;2.28;;
66567;SDS011;53422;49.296;6.900;2023-05-10T02:27:02;4.68;;;2.38;;
66567;SDS011;53422;49.296;6.900;2023-05-10T02:29:28;4.78;;;2.40;;
66567;SDS011;53422;49.296;6.900;2023-05-10T02:31:56;4.25;;;2.25;;
66567;SDS011;53422;49.296;6.900;2023-05-10T02:34:23;4.72;;;2.15;;
66567;SDS011;53422;49.296;6.900;2023-05-10T02:36:51;4.03;;;2.35;;
66567;SDS011;53422;49.296;6.900;2023-05-10T02:39:21;5.18;;;2.28;;
66567;SDS011;53422;49.296;6.900;2023-05-10T02:41:48;4.65;;;2.35;;
66567;SDS011;53422;49.296;6.900;2023-05-10T02:44:15;4.57;;;2.50;;
66567;SDS011;53422;49.296;6.900;2023-05-10T02:46:43;5.07;;;2.35;;
66567;SDS011;53422;49.296;6.900;2023-05-10T02:49:10;4.70;;;2.30;;
66567;SDS011;53422;49.296;6.900;2023-05-10T02:51:36;4.13;;;2.42;;
66567;SDS011;53422;49.296;6.900;2023-05-10T02:54:10;4.93;;;2.22;;
66567;SDS011;53422;49.296;6.900;2023-05-10T02:56:42;4.78;;;2.92;;
66567;SDS011;53422;49.296;6.900;2023-05-10T02:59:12;3.88;;;2.47;;
66567;SDS011;53422;49.296;6.900;2023-05-10T03:01:37;3.47;;;2.15;;
66567;SDS011;53422;49.296;6.900;2023-05-10T03:04:03;3.33;;;1.83;;
66567;SDS011;53422;49.296;6.900;2023-05-10T03:06:29;3.22;;;1.73;;
66567;SDS011;53422;49.296;6.900;2023-05-10T03:08:55;3.58;;;1.88;;
66567;SDS011;53422;49.296;6.900;2023-05-10T03:14:07;3.83;;;1.90;;
66567;SDS011;53422;49.296;6.900;2023-05-10T03:16:44;3.13;;;1.65;;
66567;SDS011;53422;49.296;6.900;2023-05-10T03:19:26;4.82;;;2.67;;
66567;SDS011;53422;49.296;6.900;2023-05-10T03:21:58;3.38;;;1.92;;
66567;SDS011;53422;49.296;6.900;2023-05-10T03:24:28;2.85;;;1.75;;
66567;SDS011;53422;49.296;6.900;2023-05-10T03:26:55;5.30;;;2.13;;
66567;SDS011;53422;49.296;6.900;2023-05-10T03:29:23;3.25;;;1.85;;
66567;SDS011;53422;49.296;6.900;2023-05-10T03:31:51;3.78;;;1.80;;
66567;SDS011;53422;49.296;6.900;2023-05-10T03:34:16;3.55;;;2.20;;
66567;SDS011;53422;49.296;6.900;2023-05-10T03:36:48;3.03;;;2.03;;
66567;SDS011;53422;49.296;6.900;2023-05-10T03:39:13;4.43;;;2.20;;
66567;SDS011;53422;49.296;6.900;2023-05-10T03:41:39;3.72;;;1.88;;
66567;SDS011;53422;49.296;6.900;2023-05-10T03:44:04;3.28;;;1.65;;
66567;SDS011;53422;49.296;6.900;2023-05-10T03:46:30;3.70;;;1.65;;
66567;SDS011;53422;49.296;6.900;2023-05-10T03:48:56;2.25;;;1.23;;
66567;SDS011;53422;49.296;6.900;2023-05-10T03:51:21;3.13;;;1.67;;
66567;SDS011;53422;49.296;6.900;2023-05-10T03:53:47;2.90;;;1.73;;
66567;SDS011;53422;49.296;6.900;2023-05-10T03:56:13;2.78;;;1.83;;
66567;SDS011;53422;49.296;6.900;2023-05-10T03:58:38;3.10;;;1.80;;
66567;SDS011;53422;49.296;6.900;2023-05-10T04:01:04;2.97;;;1.60;;
66567;SDS011;53422;49.296;6.900;2023-05-10T04:03:30;2.65;;;1.60;;
66567;SDS011;53422;49.296;6.900;2023-05-10T04:06:01;2.92;;;1.77;;
66567;SDS011;53422;49.296;6.900;2023-05-10T04:08:27;3.65;;;1.80;;
66567;SDS011;53422;49.296;6.900;2023-05-10T04:10:53;2.67;;;1.60;;
66567;SDS011;53422;49.296;6.900;2023-05-10T04:13:19;3.10;;;1.60;;
66567;SDS011;53422;49.296;6.900;2023-05-10T04:15:46;4.68;;;2.08;;
66567;SDS011;53422;49.296;6.900;2023-05-10T04:18:11;4.85;;;1.42;;
66567;SDS011;53422;49.296;6.900;2023-05-10T04:20:37;2.85;;;1.70;;
66567;SDS011;53422;49.296;6.900;2023-05-10T04:23:03;3.35;;;1.73;;
66567;SDS011;53422;49.296;6.900;2023-05-10T04:25:28;3.30;;;1.75;;
66567;SDS011;53422;49.296;6.900;2023-05-10T04:27:54;2.13;;;1.42;;
66567;SDS011;53422;49.296;6.900;2023-05-10T04:30:19;3.58;;;1.60;;
66567;SDS011;53422;49.296;6.900;2023-05-10T04:32:45;3.05;;;1.55;;
66567;SDS011;53422;49.296;6.900;2023-05-10T04:35:10;3.08;;;1.75;;
66567;SDS011;53422;49.296;6.900;2023-05-10T04:37:37;2.70;;;1.60;;
66567;SDS011;53422;49.296;6.900;2023-05-10T04:40:02;3.10;;;1.45;;
66567;SDS011;53422;49.296;6.900;2023-05-10T04:42:28;3.15;;;1.58;;
66567;SDS011;53422;49.296;6.900;2023-05-10T04:44:54;3.33;;;2.10;;
66567;SDS011;53422;49.296;6.900;2023-05-10T04:47:20;2.38;;;1.45;;
66567;SDS011;53422;49.296;6.900;2023-05-10T04:49:45;2.58;;;1.50;;
66567;SDS011;53422;49.296;6.900;2023-05-10T04:52:11;2.60;;;1.50;;
66567;SDS011;53422;49.296;6.900;2023-05-10T04:54:36;4.00;;;1.42;;
66567;SDS011;53422;49.296;6.900;2023-05-10T04:57:02;2.50;;;1.38;;
66567;SDS011;53422;49.296;6.900;2023-05-10T04:59:28;4.05;;;1.58;;
66567;SDS011;53422;49.296;6.900;2023-05-10T05:01:53;4.82;;;1.73;;
66567;SDS011;53422;49.296;6.900;2023-05-10T05:04:19;3.25;;;1.45;;
66567;SDS011;53422;49.296;6.900;2023-05-10T05:06:44;3.17;;;1.92;;
66567;SDS011;53422;49.296;6.900;2023-05-10T05:09:10;2.60;;;1.50;;
66567;SDS011;53422;49.296;6.900;2023-05-10T05:11:36;3.15;;;1.85;;
66567;SDS011;53422;49.296;6.900;2023-05-10T05:14:01;5.30;;;1.55;;
66567;SDS011;53422;49.296;6.900;2023-05-10T05:16:27;2.33;;;1.55;;
66567;SDS011;53422;49.296;6.900;2023-05-10T05:18:55;2.30;;;1.60;;
66567;SDS011;53422;49.296;6.900;2023-05-10T05:21:21;2.53;;;1.50;;
66567;SDS011;53422;49.296;6.900;2023-05-10T05:23:47;2.83;;;1.33;;
66567;SDS011;53422;49.296;6.900;2023-05-10T05:26:12;2.45;;;1.38;;
66567;SDS011;53422;49.296;6.900;2023-05-10T05:28:39;3.80;;;1.42;;
66567;SDS011;53422;49.296;6.900;2023-05-10T05:31:05;4.35;;;1.77;;
66567;SDS011;53422;49.296;6.900;2023-05-10T05:33:32;1.95;;;1.20;;
66567;SDS011;53422;49.296;6.900;2023-05-10T05:36:00;2.28;;;1.30;;
66567;SDS011;53422;49.296;6.900;2023-05-10T05:38:26;2.67;;;1.50;;
66567;SDS011;53422;49.296;6.900;2023-05-10T05:40:52;2.10;;;1.30;;
66567;SDS011;53422;49.296;6.900;2023-05-10T05:43:17;2.70;;;1.33;;
66567;SDS011;53422;49.296;6.900;2023-05-10T05:45:43;2.53;;;1.42;;
66567;SDS011;53422;49.296;6.900;2023-05-10T05:48:09;2.15;;;1.17;;
66567;SDS011;53422;49.296;6.900;2023-05-10T05:50:34;2.88;;;1.30;;
66567;SDS011;53422;49.296;6.900;2023-05-10T05:53:00;2.00;;;0.98;;
66567;SDS011;53422;49.296;6.900;2023-05-10T05:55:25;2.92;;;1.45;;
66567;SDS011;53422;49.296;6.900;2023-05-10T05:57:51;2.80;;;1.30;;
66567;SDS011;53422;49.296;6.900;2023-05-10T06:00:17;3.53;;;1.65;;
66567;SDS011;53422;49.296;6.900;2023-05-10T06:02:43;2.05;;;0.98;;
66567;SDS011;53422;49.296;6.900;2023-05-10T06:05:08;2.30;;;1.25;;
66567;SDS011;53422;49.296;6.900;2023-05-10T06:07:34;2.80;;;1.25;;
66567;SDS011;53422;49.296;6.900;2023-05-10T06:10:00;2.40;;;1.33;;
66567;SDS011;53422;49.296;6.900;2023-05-10T06:12:26;3.92;;;1.35;;
66567;SDS011;53422;49.296;6.900;2023-05-10T06:14:51;1.58;;;0.90;;
66567;SDS011;53422;49.296;6.900;2023-05-10T06:17:17;1.80;;;1.10;;
66567;SDS011;53422;49.296;6.900;2023-05-10T06:19:43;1.95;;;0.98;;
66567;SDS011;53422;49.296;6.900;2023-05-10T06:22:08;2.72;;;1.02;;
66567;SDS011;53422;49.296;6.900;2023-05-10T06:24:34;3.25;;;1.15;;
66567;SDS011;53422;49.296;6.900;2023-05-10T06:27:00;2.13;;;1.20;;
66567;SDS011;53422;49.296;6.900;2023-05-10T06:29:26;2.05;;;1.02;;
66567;SDS011;53422;49.296;6.900;2023-05-10T06:31:51;2.28;;;1.25;;
66567;SDS011;53422;49.296;6.900;2023-05-10T06:34:17;1.98;;;1.05;;
66567;SDS011;53422;49.296;6.900;2023-05-10T06:36:43;1.90;;;1.10;;
66567;SDS011;53422;49.296;6.900;2023-05-10T06:39:09;1.55;;;0.93;;
66567;SDS011;53422;49.296;6.900;2023-05-10T06:41:36;2.80;;;1.15;;
66567;SDS011;53422;49.296;6.900;2023-05-10T06:44:02;2.38;;;1.13;;
66567;SDS011;53422;49.296;6.900;2023-05-10T06:46:28;2.92;;;1.00;;
66567;SDS011;53422;49.296;6.900;2023-05-10T06:48:54;3.13;;;1.27;;
66567;SDS011;53422;49.296;6.900;2023-05-10T06:51:20;2.67;;;1.23;;
66567;SDS011;53422;49.296;6.900;2023-05-10T06:53:46;1.75;;;1.00;;
66567;SDS011;53422;49.296;6.900;2023-05-10T06:56:12;1.55;;;0.73;;
66567;SDS011;53422;49.296;6.900;2023-05-10T06:58:37;3.38;;;1.10;;
66567;SDS011;53422;49.296;6.900;2023-05-10T07:01:03;1.58;;;0.93;;
66567;SDS011;53422;49.296;6.900;2023-05-10T07:03:30;3.03;;;0.95;;
66567;SDS011;53422;49.296;6.900;2023-05-10T07:06:02;1.90;;;0.88;;
66567;SDS011;53422;49.296;6.900;2023-05-10T07:08:29;1.60;;;0.90;;
66567;SDS011;53422;49.296;6.900;2023-05-10T07:11:02;1.83;;;0.80;;
66567;SDS011;53422;49.296;6.900;2023-05-10T07:13:33;4.45;;;0.90;;
66567;SDS011;53422;49.296;6.900;2023-05-10T07:15:59;1.48;;;1.05;;
66567;SDS011;53422;49.296;6.900;2023-05-10T07:18:25;1.17;;;0.80;;
66567;SDS011;53422;49.296;6.900;2023-05-10T07:20:51;1.27;;;0.90;;
66567;SDS011;53422;49.296;6.900;2023-05-10T07:23:17;1.67;;;1.58;;
66567;SDS011;53422;49.296;6.900;2023-05-10T07:25:47;1.98;;;0.98;;
66567;SDS011;53422;49.296;6.900;2023-05-10T07:28:14;2.05;;;0.90;;
66567;SDS011;53422;49.296;6.900;2023-05-10T07:30:41;2.13;;;0.90;;
66567;SDS011;53422;49.296;6.900;2023-05-10T07:33:08;1.80;;;0.70;;
66567;SDS011;53422;49.296;6.900;2023-05-10T07:35:34;2.67;;;0.80;;
66567;SDS011;53422;49.296;6.900;2023-05-10T07:38:00;1.98;;;1.13;;
66567;SDS011;53422;49.296;6.900;2023-05-10T07:40:26;1.20;;;0.80;;
66567;SDS011;53422;49.296;6.900;2023-05-10T07:42:52;2.80;;;0.93;;
66567;SDS011;53422;49.296;6.900;2023-05-10T07:45:18;1.65;;;0.90;;
66567;SDS011;53422;49.296;6.900;2023-05-10T07:47:44;2.55;;;0.80;;
66567;SDS011;53422;49.296;6.900;2023-05-10T07:50:10;4.20;;;0.82;;
66567;SDS011;53422;49.296;6.900;2023-05-10T07:52:35;3.42;;;1.10;;
66567;SDS011;53422;49.296;6.900;2023-05-10T07:55:01;1.60;;;0.80;;
66567;SDS011;53422;49.296;6.900;2023-05-10T07:57:27;0.95;;;0.77;;
66567;SDS011;53422;49.296;6.900;2023-05-10T07:59:52;2.05;;;0.73;;
66567;SDS011;53422;49.296;6.900;2023-05-10T08:02:18;1.40;;;0.70;;
66567;SDS011;53422;49.296;6.900;2023-05-10T08:04:43;1.70;;;0.80;;
66567;SDS011;53422;49.296;6.900;2023-05-10T08:07:09;1.23;;;0.70;;
66567;SDS011;53422;49.296;6.900;2023-05-10T08:09:35;1.45;;;0.75;;
66567;SDS011;53422;49.296;6.900;2023-05-10T08:12:01;1.60;;;0.80;;
66567;SDS011;53422;49.296;6.900;2023-05-10T08:14:30;1.25;;;0.75;;
66567;SDS011;53422;49.296;6.900;2023-05-10T08:16:55;2.45;;;0.95;;
66567;SDS011;53422;49.296;6.900;2023-05-10T08:19:21;2.28;;;0.95;;
66567;SDS011;53422;49.296;6.900;2023-05-10T08:21:47;2.42;;;0.80;;
66567;SDS011;53422;49.296;6.900;2023-05-10T08:24:13;2.30;;;0.70;;
66567;SDS011;53422;49.296;6.900;2023-05-10T08:26:39;1.73;;;0.63;;
66567;SDS011;53422;49.296;6.900;2023-05-10T08:29:05;2.55;;;0.90;;
66567;SDS011;53422;49.296;6.900;2023-05-10T08:31:30;2.97;;;0.82;;
66567;SDS011;53422;49.296;6.900;2023-05-10T08:33:56;3.10;;;0.77;;
66567;SDS011;53422;49.296;6.900;2023-05-10T08:36:21;3.47;;;0.80;;
66567;SDS011;53422;49.296;6.900;2023-05-10T08:38:52;4.05;;;1.00;;
66567;SDS011;53422;49.296;6.900;2023-05-10T08:41:21;2.05;;;0.90;;
66567;SDS011;53422;49.296;6.900;2023-05-10T08:43:51;2.13;;;0.82;;
66567;SDS011;53422;49.296;6.900;2023-05-10T08:46:19;1.92;;;1.02;;
66567;SDS011;53422;49.296;6.900;2023-05-10T08:48:46;2.13;;;0.80;;
66567;SDS011;53422;49.296;6.900;2023-05-10T08:51:13;2.60;;;0.82;;
66567;SDS011;53422;49.296;6.900;2023-05-10T08:53:42;7.10;;;0.90;;
66567;SDS011;53422;49.296;6.900;2023-05-10T08:56:09;3.30;;;1.15;;
66567;SDS011;53422;49.296;6.900;2023-05-10T08:58:35;1.00;;;0.52;;
66567;SDS011;53422;49.296;6.900;2023-05-10T09:01:01;2.13;;;0.90;;
66567;SDS011;53422;49.296;6.900;2023-05-10T09:03:28;2.22;;;0.70;;
66567;SDS011;53422;49.296;6.900;2023-05-10T09:05:54;2.97;;;0.90;;
66567;SDS011;53422;49.296;6.900;2023-05-10T09:08:23;2.40;;;0.82;;
66567;SDS011;53422;49.296;6.900;2023-05-10T09:10:53;0.88;;;0.70;;
66567;SDS011;53422;49.296;6.900;2023-05-10T09:13:19;1.13;;;0.60;;
66567;SDS011;53422;49.296;6.900;2023-05-10T09:18:13;1.92;;;0.75;;
66567;SDS011;53422;49.296;6.900;2023-05-10T09:20:39;1.40;;;0.90;;
66567;SDS011;53422;49.296;6.900;2023-05-10T09:23:05;1.60;;;0.93;;
66567;SDS011;53422;49.296;6.900;2023-05-10T09:25:31;1.40;;;0.60;;
66567;SDS011;53422;49.296;6.900;2023-05-10T09:27:58;2.58;;;0.73;;
66567;SDS011;53422;49.296;6.900;2023-05-10T09:30:28;1.08;;;0.52;;
66567;SDS011;53422;49.296;6.900;2023-05-10T09:32:55;2.22;;;1.10;;
66567;SDS011;53422;49.296;6.900;2023-05-10T09:35:23;1.70;;;0.60;;
66567;SDS011;53422;49.296;6.900;2023-05-10T09:37:51;2.53;;;0.65;;
66567;SDS011;53422;49.296;6.900;2023-05-10T09:40:20;2.13;;;1.00;;
66567;SDS011;53422;49.296;6.900;2023-05-10T09:45:19;1.15;;;0.70;;
66567;SDS011;53422;49.296;6.900;2023-05-10T09:47:46;3.63;;;0.75;;
66567;SDS011;53422;49.296;6.900;2023-05-10T09:50:12;1.33;;;0.70;;
66567;SDS011;53422;49.296;6.900;2023-05-10T09:52:48;2.70;;;0.90;;
66567;SDS011;53422;49.296;6.900;2023-05-10T09:55:14;2.47;;;0.50;;
66567;SDS011;53422;49.296;6.900;2023-05-10T09:57:40;2.05;;;0.60;;
66567;SDS011;53422;49.296;6.900;2023-05-10T10:00:06;1.30;;;0.50;;
66567;SDS011;53422;49.296;6.900;2023-05-10T10:02:34;1.45;;;0.95;;
66567;SDS011;53422;49.296;6.900;2023-05-10T10:05:01;0.75;;;0.63;;
66567;SDS011;53422;49.296;6.900;2023-05-10T10:07:30;2.05;;;0.60;;
66567;SDS011;53422;49.296;6.900;2023-05-10T10:09:56;0.82;;;0.50;;
66567;SDS011;53422;49.296;6.900;2023-05-10T10:12:23;1.15;;;0.50;;
66567;SDS011;53422;49.296;6.900;2023-05-10T10:14:50;0.80;;;0.50;;
66567;SDS011;53422;49.296;6.900;2023-05-10T10:17:16;1.67;;;0.50;;
66567;SDS011;53422;49.296;6.900;2023-05-10T10:19:42;1.80;;;0.50;;
66567;SDS011;53422;49.296;6.900;2023-05-10T10:22:10;1.63;;;0.65;;
66567;SDS011;53422;49.296;6.900;2023-05-10T10:24:37;1.98;;;0.68;;
66567;SDS011;53422;49.296;6.900;2023-05-10T10:27:17;3.65;;;0.63;;
66567;SDS011;53422;49.296;6.900;2023-05-10T10:35:32;2.08;;;0.80;;
66567;SDS011;53422;49.296;6.900;2023-05-10T10:37:59;1.75;;;0.60;;
66567;SDS011;53422;49.296;6.900;2023-05-10T10:40:29;4.47;;;0.65;;
66567;SDS011;53422;49.296;6.900;2023-05-10T10:42:56;0.95;;;0.52;;
66567;SDS011;53422;49.296;6.900;2023-05-10T10:45:23;0.90;;;0.50;;
66567;SDS011;53422;49.296;6.900;2023-05-10T10:50:55;3.05;;;0.73;;
66567;SDS011;53422;49.296;6.900;2023-05-10T10:53:27;2.10;;;0.43;;
66567;SDS011;53422;49.296;6.900;2023-05-10T10:56:06;2.30;;;0.73;;
66567;SDS011;53422;49.296;6.900;2023-05-10T10:58:34;1.27;;;0.70;;
66567;SDS011;53422;49.296;6.900;2023-05-10T11:06:30;2.42;;;0.73;;
66567;SDS011;53422;49.296;6.900;2023-05-10T11:09:09;1.60;;;0.60;;
66567;SDS011;53422;49.296;6.900;2023-05-10T11:11:36;1.40;;;0.52;;
66567;SDS011;53422;49.296;6.900;2023-05-10T11:14:17;0.90;;;0.63;;
66567;SDS011;53422;49.296;6.900;2023-05-10T11:16:45;2.17;;;0.88;;
66567;SDS011;53422;49.296;6.900;2023-05-10T11:19:12;3.22;;;0.88;;
66567;SDS011;53422;49.296;6.900;2023-05-10T11:21:53;1.15;;;0.60;;
66567;SDS011;53422;49.296;6.900;2023-05-10T11:24:38;1.73;;;0.70;;
66567;SDS011;53422;49.296;6.900;2023-05-10T11:27:04;1.50;;;0.55;;
66567;SDS011;53422;49.296;6.900;2023-05-10T11:29:31;1.30;;;0.60;;
66567;SDS011;53422;49.296;6.900;2023-05-10T11:31:57;0.80;;;0.60;;
66567;SDS011;53422;49.296;6.900;2023-05-10T11:34:25;2.03;;;0.55;;
66567;SDS011;53422;49.296;6.900;2023-05-10T11:36:55;3.45;;;0.70;;
66567;SDS011;53422;49.296;6.900;2023-05-10T11:39:26;3.47;;;0.70;;
66567;SDS011;53422;49.296;6.900;2023-05-10T11:41:53;1.85;;;1.15;;
66567;SDS011;53422;49.296;6.900;2023-05-10T11:44:19;3.30;;;0.90;;
66567;SDS011;53422;49.296;6.900;2023-05-10T11:46:45;2.13;;;0.68;;
66567;SDS011;53422;49.296;6.900;2023-05-10T11:49:10;2.75;;;0.55;;
66567;SDS011;53422;49.296;6.900;2023-05-10T11:51:38;1.65;;;0.65;;
66567;SDS011;53422;49.296;6.900;2023-05-10T11:54:08;0.77;;;0.47;;
66567;SDS011;53422;49.296;6.900;2023-05-10T11:56:35;1.92;;;0.60;;
66567;SDS011;53422;49.296;6.900;2023-05-10T11:59:05;0.57;;;0.47;;
66567;SDS011;53422;49.296;6.900;2023-05-10T12:01:31;0.60;;;0.43;;
66567;SDS011;53422;49.296;6.900;2023-05-10T12:03:58;1.00;;;0.50;;
66567;SDS011;53422;49.296;6.900;2023-05-10T12:06:28;1.95;;;0.60;;
66567;SDS011;53422;49.296;6.900;2023-05-10T12:09:05;1.20;;;0.50;;
66567;SDS011;53422;49.296;6.900;2023-05-10T12:11:35;1.10;;;0.52;;
66567;SDS011;53422;49.296;6.900;2023-05-10T12:14:04;0.80;;;0.50;;
66567;SDS011;53422;49.296;6.900;2023-05-10T12:16:30;1.35;;;0.65;;
66567;SDS011;53422;49.296;6.900;2023-05-10T12:18:56;1.00;;;0.52;;
66567;SDS011;53422;49.296;6.900;2023-05-10T12:21:23;0.90;;;0.60;;
66567;SDS011;53422;49.296;6.900;2023-05-10T12:23:50;1.42;;;0.50;;
66567;SDS011;53422;49.296;6.900;2023-05-10T12:26:17;1.58;;;0.55;;
66567;SDS011;53422;49.296;6.900;2023-05-10T12:28:43;1.42;;;0.63;;
66567;SDS011;53422;49.296;6.900;2023-05-10T12:31:09;2.80;;;0.70;;
66567;SDS011;53422;49.296;6.900;2023-05-10T12:33:39;1.35;;;0.60;;
66567;SDS011;53422;49.296;6.900;2023-05-10T12:36:07;3.35;;;0.65;;
66567;SDS011;53422;49.296;6.900;2023-05-10T12:38:35;0.50;;;0.30;;
66567;SDS011;53422;49.296;6.900;2023-05-10T12:41:06;2.42;;;0.85;;
66567;SDS011;53422;49.296;6.900;2023-05-10T12:43:34;1.20;;;0.55;;
66567;SDS011;53422;49.296;6.900;2023-05-10T12:46:10;1.38;;;0.60;;
66567;SDS011;53422;49.296;6.900;2023-05-10T12:48:38;2.97;;;0.63;;
66567;SDS011;53422;49.296;6.900;2023-05-10T12:51:05;0.93;;;0.52;;
66567;SDS011;53422;49.296;6.900;2023-05-10T12:53:37;2.03;;;0.45;;
66567;SDS011;53422;49.296;6.900;2023-05-10T12:56:03;0.82;;;0.55;;
66567;SDS011;53422;49.296;6.900;2023-05-10T12:58:29;0.60;;;0.43;;
66567;SDS011;53422;49.296;6.900;2023-05-10T13:00:55;1.25;;;0.50;;
66567;SDS011;53422;49.296;6.900;2023-05-10T13:03:21;0.77;;;0.55;;
66567;SDS011;53422;49.296;6.900;2023-05-10T13:05:47;1.00;;;0.50;;
66567;SDS011;53422;49.296;6.900;2023-05-10T13:08:13;0.68;;;0.68;;
66567;SDS011;53422;49.296;6.900;2023-05-10T13:10:39;1.00;;;0.43;;
66567;SDS011;53422;49.296;6.900;2023-05-10T13:13:05;0.82;;;0.50;;
66567;SDS011;53422;49.296;6.900;2023-05-10T13:15:31;1.17;;;0.50;;
66567;SDS011;53422;49.296;6.900;2023-05-10T13:17:57;1.13;;;0.50;;
66567;SDS011;53422;49.296;6.900;2023-05-10T13:20:22;1.00;;;0.60;;
66567;SDS011;53422;49.296;6.900;2023-05-10T13:22:48;2.13;;;0.90;;
66567;SDS011;53422;49.296;6.900;2023-05-10T13:25:13;2.25;;;0.50;;
66567;SDS011;53422;49.296;6.900;2023-05-10T13:27:39;1.23;;;0.50;;
66567;SDS011;53422;49.296;6.900;2023-05-10T13:30:06;1.00;;;0.47;;
66567;SDS011;53422;49.296;6.900;2023-05-10T13:32:32;2.33;;;0.55;;
66567;SDS011;53422;49.296;6.900;2023-05-10T13:34:58;1.20;;;0.60;;
66567;SDS011;53422;49.296;6.900;2023-05-10T13:37:24;0.80;;;0.47;;
66567;SDS011;53422;49.296;6.900;2023-05-10T13:39:49;1.60;;;0.60;;
66567;SDS011;53422;49.296;6.900;2023-05-10T13:42:15;2.75;;;0.70;;
66567;SDS011;53422;49.296;6.900;2023-05-10T13:44:41;0.93;;;0.47;;
66567;SDS011;53422;49.296;6.900;2023-05-10T13:47:06;1.02;;;0.70;;
66567;SDS011;53422;49.296;6.900;2023-05-10T13:49:32;1.35;;;0.73;;
66567;SDS011;53422;49.296;6.900;2023-05-10T13:51:58;4.20;;;0.68;;
66567;SDS011;53422;49.296;6.900;2023-05-10T13:54:30;1.55;;;0.52;;
66567;SDS011;53422;49.296;6.900;2023-05-10T13:56:56;1.88;;;0.38;;
66567;SDS011;53422;49.296;6.900;2023-05-10T13:59:22;1.27;;;0.50;;
66567;SDS011;53422;49.296;6.900;2023-05-10T14:01:48;1.38;;;0.60;;
66567;SDS011;53422;49.296;6.900;2023-05-10T14:04:13;0.73;;;0.50;;
66567;SDS011;53422;49.296;6.900;2023-05-10T14:06:39;0.80;;;0.50;;
66567;SDS011;53422;49.296;6.900;2023-05-10T14:09:05;2.78;;;0.60;;
66567;SDS011;53422;49.296;6.900;2023-05-10T14:11:31;2.72;;;0.90;;
66567;SDS011;53422;49.296;6.900;2023-05-10T14:13:56;2.40;;;0.60;;
66567;SDS011;53422;49.296;6.900;2023-05-10T14:16:22;0.80;;;0.60;;
66567;SDS011;53422;49.296;6.900;2023-05-10T14:18:47;0.60;;;0.40;;
66567;SDS011;53422;49.296;6.900;2023-05-10T14:21:13;1.05;;;0.50;;
66567;SDS011;53422;49.296;6.900;2023-05-10T14:23:39;0.80;;;0.43;;
66567;SDS011;53422;49.296;6.900;2023-05-10T14:26:04;0.70;;;0.40;;
66567;SDS011;53422;49.296;6.900;2023-05-10T14:28:31;1.90;;;0.60;;
66567;SDS011;53422;49.296;6.900;2023-05-10T14:30:57;1.42;;;0.55;;
66567;SDS011;53422;49.296;6.900;2023-05-10T14:33:23;1.05;;;0.50;;
66567;SDS011;53422;49.296;6.900;2023-05-10T14:35:49;1.63;;;0.50;;
66567;SDS011;53422;49.296;6.900;2023-05-10T14:38:16;1.05;;;0.45;;
66567;SDS011;53422;49.296;6.900;2023-05-10T14:40:41;1.60;;;0.50;;
66567;SDS011;53422;49.296;6.900;2023-05-10T14:43:07;1.55;;;0.60;;
66567;SDS011;53422;49.296;6.900;2023-05-10T14:45:33;1.25;;;0.50;;
66567;SDS011;53422;49.296;6.900;2023-05-10T14:47:59;1.65;;;0.47;;
66567;SDS011;53422;49.296;6.900;2023-05-10T14:50:26;2.30;;;0.80;;
66567;SDS011;53422;49.296;6.900;2023-05-10T14:52:51;2.40;;;0.80;;
66567;SDS011;53422;49.296;6.900;2023-05-10T14:55:18;0.88;;;0.50;;
66567;SDS011;53422;49.296;6.900;2023-05-10T14:57:44;1.55;;;0.60;;
66567;SDS011;53422;49.296;6.900;2023-05-10T15:00:11;0.82;;;0.50;;
66567;SDS011;53422;49.296;6.900;2023-05-10T15:02:37;3.05;;;0.60;;
66567;SDS011;53422;49.296;6.900;2023-05-10T15:05:03;0.50;;;0.50;;
66567;SDS011;53422;49.296;6.900;2023-05-10T15:07:29;0.82;;;0.50;;
66567;SDS011;53422;49.296;6.900;2023-05-10T15:09:56;0.75;;;0.60;;
66567;SDS011;53422;49.296;6.900;2023-05-10T15:12:21;1.08;;;0.68;;
66567;SDS011;53422;49.296;6.900;2023-05-10T15:14:47;1.27;;;0.73;;
66567;SDS011;53422;49.296;6.900;2023-05-10T15:17:13;1.10;;;0.85;;
66567;SDS011;53422;49.296;6.900;2023-05-10T15:19:38;1.80;;;0.70;;
66567;SDS011;53422;49.296;6.900;2023-05-10T15:22:04;1.45;;;0.77;;
66567;SDS011;53422;49.296;6.900;2023-05-10T15:24:30;1.58;;;0.60;;
66567;SDS011;53422;49.296;6.900;2023-05-10T15:26:56;1.75;;;0.47;;
66567;SDS011;53422;49.296;6.900;2023-05-10T15:29:22;1.55;;;0.80;;
66567;SDS011;53422;49.296;6.900;2023-05-10T15:31:48;1.20;;;0.43;;